Time;durP1;ratioP1;P1;durP2;ratioP2;P2;SDS_P1;SDS_P2;PMS_P1;PMS_P2;Temp;Humidity;BMP_temperature;BMP_pressure;BME280_temperature;BME280_humidity;BME280_pressure;Samples;Min_cycle;Max_cycle;Signal;HPM_P1;HPM_P2
2023/09/25 00:00:30;;;;;;;3.25;1.10;;;;;;;;;;5089130;28;20082;-63
2023/09/25 00:02:59;;;;;;;1.60;0.90;;;;;;;;;;5077306;28;20048;-64
2023/09/25 00:05:27;;;;;;;5.00;1.30;;;;;;;;;;5084772;28;20058;-63
2023/09/25 00:07:54;;;;;;;4.53;1.20;;;;;;;;;;5077722;28;20608;-63
2023/09/25 00:10:21;;;;;;;2.15;0.82;;;;;;;;;;5087260;28;20040;-63
2023/09/25 00:12:50;;;;;;;2.67;0.90;;;;;;;;;;5086089;28;20044;-63
2023/09/25 00:15:17;;;;;;;1.65;0.80;;;;;;;;;;5063910;28;20057;-63
2023/09/25 00:17:44;;;;;;;1.83;0.90;;;;;;;;;;5088049;28;20232;-63
2023/09/25 00:20:12;;;;;;;1.60;0.90;;;;;;;;;;5089858;28;20048;-64
2023/09/25 00:22:39;;;;;;;2.42;1.00;;;;;;;;;;5084933;28;20541;-63
2023/09/25 00:25:07;;;;;;;7.78;1.13;;;;;;;;;;5091175;28;20047;-63
2023/09/25 00:27:35;;;;;;;4.10;1.00;;;;;;;;;;5081585;28;20044;-64
2023/09/25 00:30:06;;;;;;;2.55;0.98;;;;;;;;;;5082528;28;20468;-63
2023/09/25 00:32:34;;;;;;;2.90;1.02;;;;;;;;;;5096363;28;20556;-63
2023/09/25 00:35:01;;;;;;;2.50;1.10;;;;;;;;;;5083526;28;20420;-63
2023/09/25 00:37:29;;;;;;;3.95;1.10;;;;;;;;;;5081780;28;20131;-63
2023/09/25 00:39:58;;;;;;;3.30;1.10;;;;;;;;;;5084788;28;20054;-63
2023/09/25 00:42:26;;;;;;;3.38;1.00;;;;;;;;;;5086697;28;20048;-64
2023/09/25 00:44:53;;;;;;;4.03;1.25;;;;;;;;;;5083312;28;20047;-63
2023/09/25 00:47:22;;;;;;;3.58;1.15;;;;;;;;;;5088676;28;20040;-64
2023/09/25 00:49:49;;;;;;;2.70;1.10;;;;;;;;;;5084437;28;20060;-64
2023/09/25 00:52:16;;;;;;;4.68;1.10;;;;;;;;;;5083929;28;20040;-63
2023/09/25 00:54:44;;;;;;;2.63;1.20;;;;;;;;;;5066531;28;20059;-64
2023/09/25 00:57:12;;;;;;;4.75;1.38;;;;;;;;;;5085889;28;20052;-64
2023/09/25 00:59:40;;;;;;;3.70;1.35;;;;;;;;;;5088439;28;20109;-64
2023/09/25 01:02:07;;;;;;;3.55;1.02;;;;;;;;;;5091290;28;20052;-64
2023/09/25 01:04:36;;;;;;;2.63;1.15;;;;;;;;;;5083257;28;20380;-64
2023/09/25 01:07:03;;;;;;;1.92;1.02;;;;;;;;;;5083562;28;20449;-64
2023/09/25 01:09:30;;;;;;;2.28;1.15;;;;;;;;;;5076086;28;20053;-64
2023/09/25 01:11:58;;;;;;;3.08;1.00;;;;;;;;;;5086919;28;20044;-64
2023/09/25 01:14:27;;;;;;;2.55;1.23;;;;;;;;;;5088371;28;20051;-64
2023/09/25 01:16:54;;;;;;;5.15;1.25;;;;;;;;;;5086931;28;20044;-64
2023/09/25 01:19:21;;;;;;;7.18;1.23;;;;;;;;;;5081364;28;20068;-64
2023/09/25 01:21:50;;;;;;;3.40;1.30;;;;;;;;;;5087912;28;20056;-63
2023/09/25 01:24:17;;;;;;;3.22;1.38;;;;;;;;;;5084496;28;20045;-63
2023/09/25 01:26:45;;;;;;;5.88;1.52;;;;;;;;;;5081300;28;20380;-63
2023/09/25 01:29:17;;;;;;;2.80;1.33;;;;;;;;;;5083873;28;20051;-63
2023/09/25 01:31:44;;;;;;;2.50;1.20;;;;;;;;;;5090593;28;20487;-64
2023/09/25 01:34:11;;;;;;;2.20;1.50;;;;;;;;;;5067827;28;20052;-63
2023/09/25 01:36:39;;;;;;;2.95;1.70;;;;;;;;;;5082784;28;20044;-63
2023/09/25 01:39:10;;;;;;;3.60;1.80;;;;;;;;;;5084469;28;20051;-63
2023/09/25 01:41:37;;;;;;;5.60;1.60;;;;;;;;;;5072986;28;20409;-64
2023/09/25 01:44:05;;;;;;;4.90;1.30;;;;;;;;;;5082123;28;20610;-64
2023/09/25 01:46:32;;;;;;;6.32;1.85;;;;;;;;;;5089086;28;20044;-63
2023/09/25 01:49:00;;;;;;;4.03;1.50;;;;;;;;;;5079667;28;20099;-63
2023/09/25 01:51:27;;;;;;;3.13;1.58;;;;;;;;;;5085040;28;20478;-63
2023/09/25 01:53:54;;;;;;;2.67;1.52;;;;;;;;;;5086169;28;20048;-63
2023/09/25 01:56:22;;;;;;;2.42;1.60;;;;;;;;;;5089506;28;20043;-63
2023/09/25 01:58:50;;;;;;;2.55;1.55;;;;;;;;;;5086750;28;20123;-63
2023/09/25 02:01:17;;;;;;;3.60;1.75;;;;;;;;;;5089700;28;20058;-63
2023/09/25 02:03:45;;;;;;;5.25;1.80;;;;;;;;;;5092761;28;20412;-63
2023/09/25 02:06:12;;;;;;;7.55;1.73;;;;;;;;;;5085789;28;20073;-63
2023/09/25 02:08:40;;;;;;;4.50;1.50;;;;;;;;;;5088240;28;20123;-63
2023/09/25 02:11:08;;;;;;;3.83;1.90;;;;;;;;;;5084563;28;20467;-63
2023/09/25 02:13:36;;;;;;;2.15;1.30;;;;;;;;;;5074012;28;20086;-63
2023/09/25 02:16:04;;;;;;;3.25;1.60;;;;;;;;;;5089236;28;20048;-63
2023/09/25 02:18:31;;;;;;;2.83;1.40;;;;;;;;;;5081554;28;20079;-64
2023/09/25 02:20:58;;;;;;;3.95;1.67;;;;;;;;;;5087035;28;20517;-64
2023/09/25 02:23:26;;;;;;;4.13;1.70;;;;;;;;;;5090907;28;20048;-63
2023/09/25 02:25:53;;;;;;;3.92;1.52;;;;;;;;;;5070837;28;20499;-64
2023/09/25 02:28:20;;;;;;;4.82;1.85;;;;;;;;;;5089168;28;20043;-63
2023/09/25 02:30:49;;;;;;;4.82;1.60;;;;;;;;;;5069008;28;20551;-63
2023/09/25 02:33:16;;;;;;;3.13;1.63;;;;;;;;;;5086302;28;20098;-63
2023/09/25 02:35:43;;;;;;;4.25;1.85;;;;;;;;;;5086219;28;20058;-64
2023/09/25 02:38:10;;;;;;;5.00;1.88;;;;;;;;;;5089383;28;20562;-63
2023/09/25 02:40:37;;;;;;;4.55;1.40;;;;;;;;;;5085059;28;20048;-63
2023/09/25 02:43:05;;;;;;;4.88;1.98;;;;;;;;;;5090037;28;20039;-63
2023/09/25 02:45:32;;;;;;;3.95;1.58;;;;;;;;;;5091479;28;20048;-63
2023/09/25 02:48:00;;;;;;;5.15;1.90;;;;;;;;;;5089304;28;20051;-63
2023/09/25 02:50:28;;;;;;;3.63;1.48;;;;;;;;;;5087053;28;20078;-63
2023/09/25 02:52:55;;;;;;;4.60;1.48;;;;;;;;;;5090152;28;20052;-63
2023/09/25 02:55:22;;;;;;;4.25;1.73;;;;;;;;;;5091100;28;20434;-64
2023/09/25 02:57:49;;;;;;;2.63;1.40;;;;;;;;;;5088676;28;20044;-63
2023/09/25 03:00:17;;;;;;;4.47;1.50;;;;;;;;;;5069625;28;20492;-63
2023/09/25 03:02:44;;;;;;;4.28;1.70;;;;;;;;;;5079077;28;20055;-63
2023/09/25 03:05:14;;;;;;;4.22;1.52;;;;;;;;;;5089825;28;20044;-63
2023/09/25 03:07:42;;;;;;;2.42;1.30;;;;;;;;;;5073134;28;20170;-63
2023/09/25 03:10:10;;;;;;;5.20;2.00;;;;;;;;;;5089833;28;20059;-63
2023/09/25 03:12:37;;;;;;;3.22;1.83;;;;;;;;;;5080383;28;20148;-63
2023/09/25 03:15:05;;;;;;;3.00;1.50;;;;;;;;;;5086089;28;20048;-63
2023/09/25 03:17:33;;;;;;;7.32;1.73;;;;;;;;;;5088560;28;20124;-63
2023/09/25 03:20:02;;;;;;;3.88;1.52;;;;;;;;;;5089592;28;20140;-63
2023/09/25 03:22:30;;;;;;;5.57;1.58;;;;;;;;;;5083977;28;20048;-64
2023/09/25 03:24:57;;;;;;;4.05;1.83;;;;;;;;;;5088105;28;20059;-63
2023/09/25 03:27:25;;;;;;;4.80;1.92;;;;;;;;;;5081987;28;20036;-63
2023/09/25 03:29:52;;;;;;;2.85;1.60;;;;;;;;;;5084972;28;20044;-63
2023/09/25 03:32:19;;;;;;;3.58;1.92;;;;;;;;;;5091070;28;20048;-63
2023/09/25 03:34:46;;;;;;;6.22;1.88;;;;;;;;;;5084490;28;20499;-64
2023/09/25 03:37:13;;;;;;;6.32;2.33;;;;;;;;;;5086862;28;20087;-63
2023/09/25 03:39:42;;;;;;;4.05;1.73;;;;;;;;;;5083465;28;20055;-63
2023/09/25 03:42:09;;;;;;;5.05;1.90;;;;;;;;;;5085069;28;20066;-63
2023/09/25 03:44:36;;;;;;;5.03;1.67;;;;;;;;;;5086825;28;20051;-63
2023/09/25 03:47:03;;;;;;;4.03;2.00;;;;;;;;;;5084684;28;20055;-63
2023/09/25 03:49:31;;;;;;;2.65;1.65;;;;;;;;;;5087926;28;20399;-63
2023/09/25 03:51:58;;;;;;;4.03;1.65;;;;;;;;;;5087335;28;20052;-63
2023/09/25 03:54:25;;;;;;;6.00;1.65;;;;;;;;;;5083896;28;20044;-63
2023/09/25 03:56:53;;;;;;;3.85;1.80;;;;;;;;;;5079611;28;20511;-63
2023/09/25 03:59:21;;;;;;;3.95;1.70;;;;;;;;;;5070006;28;20059;-63
2023/09/25 04:01:48;;;;;;;2.63;1.55;;;;;;;;;;5096457;28;20419;-63
2023/09/25 04:04:15;;;;;;;6.05;1.75;;;;;;;;;;5088268;28;20044;-63
2023/09/25 04:06:43;;;;;;;2.80;1.80;;;;;;;;;;5079989;28;20423;-63
2023/09/25 04:09:10;;;;;;;3.80;1.60;;;;;;;;;;5083162;28;20040;-63
2023/09/25 04:11:38;;;;;;;5.70;1.50;;;;;;;;;;5087191;28;20098;-63
2023/09/25 04:14:06;;;;;;;3.58;1.45;;;;;;;;;;5081815;28;20044;-63
2023/09/25 04:16:34;;;;;;;5.35;1.73;;;;;;;;;;5086042;28;20087;-63
2023/09/25 04:19:04;;;;;;;2.30;1.27;;;;;;;;;;5089223;28;20052;-63
2023/09/25 04:21:32;;;;;;;5.03;1.40;;;;;;;;;;5084778;28;20052;-63
2023/09/25 04:24:01;;;;;;;2.95;1.73;;;;;;;;;;5065556;28;20525;-63
2023/09/25 04:26:29;;;;;;;4.75;1.27;;;;;;;;;;5079797;28;20145;-63
2023/09/25 04:28:57;;;;;;;3.53;1.30;;;;;;;;;;5086013;28;20056;-63
2023/09/25 04:31:28;;;;;;;2.45;1.40;;;;;;;;;;5083024;28;20048;-63
2023/09/25 04:33:55;;;;;;;3.35;1.52;;;;;;;;;;5087054;28;20048;-64
2023/09/25 04:36:23;;;;;;;7.47;1.40;;;;;;;;;;5085617;28;20112;-64
2023/09/25 04:38:50;;;;;;;4.10;1.48;;;;;;;;;;5083793;28;20044;-64
2023/09/25 04:41:18;;;;;;;5.82;1.63;;;;;;;;;;5086623;28;20087;-64
2023/09/25 04:43:45;;;;;;;4.38;1.38;;;;;;;;;;5083784;28;20060;-64
2023/09/25 04:46:13;;;;;;;4.72;1.38;;;;;;;;;;5093972;28;20082;-64
2023/09/25 04:48:41;;;;;;;4.05;1.45;;;;;;;;;;5088920;28;20499;-64
2023/09/25 04:51:09;;;;;;;3.78;1.65;;;;;;;;;;5066480;28;20066;-65
2023/09/25 04:53:37;;;;;;;3.17;1.40;;;;;;;;;;5084403;28;20526;-63
2023/09/25 04:56:05;;;;;;;4.82;1.45;;;;;;;;;;5085246;28;20044;-63
2023/09/25 04:58:32;;;;;;;3.17;1.33;;;;;;;;;;5088269;28;20038;-63
2023/09/25 05:00:59;;;;;;;2.90;1.65;;;;;;;;;;5079367;28;20399;-63
2023/09/25 05:03:26;;;;;;;3.70;1.70;;;;;;;;;;5087915;28;20044;-63
2023/09/25 05:05:55;;;;;;;6.57;1.50;;;;;;;;;;5086174;28;20475;-63
2023/09/25 05:08:23;;;;;;;3.45;1.40;;;;;;;;;;5084175;28;20418;-63
2023/09/25 05:10:50;;;;;;;6.28;1.40;;;;;;;;;;5083379;28;20052;-63
2023/09/25 05:13:17;;;;;;;2.35;1.30;;;;;;;;;;5084534;28;20128;-63
2023/09/25 05:15:44;;;;;;;3.55;1.67;;;;;;;;;;5081032;28;20051;-63
2023/09/25 05:18:11;;;;;;;2.58;1.40;;;;;;;;;;5085320;28;20051;-63
2023/09/25 05:20:39;;;;;;;2.42;1.17;;;;;;;;;;5062197;28;20048;-63
2023/09/25 05:23:07;;;;;;;6.85;1.40;;;;;;;;;;5083666;28;20399;-63
2023/09/25 05:25:35;;;;;;;3.55;1.38;;;;;;;;;;5072200;28;20471;-63
2023/09/25 05:28:02;;;;;;;2.42;1.33;;;;;;;;;;5088767;28;20051;-63
2023/09/25 05:30:29;;;;;;;5.38;1.67;;;;;;;;;;5090476;28;20040;-63
2023/09/25 05:32:56;;;;;;;3.58;1.58;;;;;;;;;;5073851;28;20622;-63
2023/09/25 05:35:24;;;;;;;5.05;1.52;;;;;;;;;;5089186;28;20047;-63
2023/09/25 05:37:51;;;;;;;3.55;1.48;;;;;;;;;;5089682;28;20044;-63
2023/09/25 05:40:19;;;;;;;2.40;1.30;;;;;;;;;;5091927;28;20515;-63
2023/09/25 05:42:47;;;;;;;8.95;1.63;;;;;;;;;;5093242;28;20439;-63
2023/09/25 05:45:15;;;;;;;3.72;1.55;;;;;;;;;;5092362;28;20063;-63
2023/09/25 05:47:43;;;;;;;3.05;1.35;;;;;;;;;;5091271;28;20060;-64
2023/09/25 05:50:11;;;;;;;2.30;1.30;;;;;;;;;;5066601;28;20399;-63
2023/09/25 05:52:39;;;;;;;2.30;1.20;;;;;;;;;;5077033;28;20499;-64
2023/09/25 05:55:07;;;;;;;3.30;1.45;;;;;;;;;;5091553;28;20044;-64
2023/09/25 05:57:36;;;;;;;5.13;1.30;;;;;;;;;;5084204;28;20048;-63
2023/09/25 06:00:10;;;;;;;1.95;1.05;;;;;;;;;;5087371;28;20047;-63
2023/09/25 06:02:38;;;;;;;3.45;1.40;;;;;;;;;;5089953;28;20044;-63
2023/09/25 06:05:05;;;;;;;2.88;1.23;;;;;;;;;;5085839;28;20059;-63
2023/09/25 06:07:33;;;;;;;3.40;1.38;;;;;;;;;;5089761;28;20052;-63
2023/09/25 06:10:01;;;;;;;3.13;1.30;;;;;;;;;;5087699;28;20122;-63
2023/09/25 06:12:28;;;;;;;4.18;1.42;;;;;;;;;;5086829;28;20669;-64
2023/09/25 06:14:57;;;;;;;2.10;1.27;;;;;;;;;;5084451;28;20052;-64
2023/09/25 06:17:26;;;;;;;5.80;1.40;;;;;;;;;;5082316;28;20044;-63
2023/09/25 06:19:54;;;;;;;2.83;1.30;;;;;;;;;;5076144;28;20472;-64
2023/09/25 06:22:21;;;;;;;2.42;1.17;;;;;;;;;;5086131;28;20495;-63
2023/09/25 06:24:49;;;;;;;2.63;1.27;;;;;;;;;;5092416;28;20047;-63
2023/09/25 06:27:16;;;;;;;2.72;1.10;;;;;;;;;;5083366;28;20052;-63
2023/09/25 06:29:44;;;;;;;1.75;1.05;;;;;;;;;;5068716;28;20048;-63
2023/09/25 06:32:13;;;;;;;3.13;1.40;;;;;;;;;;5080712;28;20145;-63
2023/09/25 06:34:40;;;;;;;2.60;1.30;;;;;;;;;;5062585;28;20106;-63
2023/09/25 06:37:08;;;;;;;3.17;1.40;;;;;;;;;;5086095;28;20131;-63
2023/09/25 06:39:35;;;;;;;2.42;1.02;;;;;;;;;;5086803;28;20040;-63
2023/09/25 06:42:03;;;;;;;2.30;1.17;;;;;;;;;;5087845;28;20513;-63
2023/09/25 06:44:30;;;;;;;1.67;1.00;;;;;;;;;;5073004;28;20056;-63
2023/09/25 06:46:57;;;;;;;5.65;1.33;;;;;;;;;;5086661;28;20415;-63
2023/09/25 06:49:26;;;;;;;4.00;1.48;;;;;;;;;;5080894;28;20040;-63
2023/09/25 06:51:53;;;;;;;3.72;1.23;;;;;;;;;;5075985;28;20044;-63
2023/09/25 06:54:20;;;;;;;2.22;1.20;;;;;;;;;;5094759;28;20494;-63
2023/09/25 06:56:48;;;;;;;1.50;1.02;;;;;;;;;;5090653;28;20085;-64
2023/09/25 06:59:15;;;;;;;4.55;1.42;;;;;;;;;;5073772;28;20051;-63
2023/09/25 07:01:42;;;;;;;2.60;1.45;;;;;;;;;;5090149;28;20051;-64
2023/09/25 07:04:10;;;;;;;3.70;1.20;;;;;;;;;;5091486;28;20047;-64
2023/09/25 07:06:39;;;;;;;2.95;1.15;;;;;;;;;;5085868;28;20071;-64
2023/09/25 07:09:09;;;;;;;1.98;0.90;;;;;;;;;;5087361;28;20048;-64
2023/09/25 07:11:36;;;;;;;3.20;1.00;;;;;;;;;;5085447;28;20538;-64
2023/09/25 07:14:03;;;;;;;4.20;1.30;;;;;;;;;;5091153;28;20051;-64
2023/09/25 07:16:31;;;;;;;1.52;0.88;;;;;;;;;;5090412;28;20411;-63
2023/09/25 07:18:59;;;;;;;3.38;1.40;;;;;;;;;;5093870;28;20123;-64
2023/09/25 07:21:26;;;;;;;3.85;1.02;;;;;;;;;;5083040;28;20055;-64
2023/09/25 07:23:55;;;;;;;3.55;1.15;;;;;;;;;;5075363;28;20086;-64
2023/09/25 07:26:22;;;;;;;3.30;1.38;;;;;;;;;;5086487;28;20410;-64
2023/09/25 07:28:50;;;;;;;1.98;1.13;;;;;;;;;;5082782;28;20051;-64
2023/09/25 07:31:19;;;;;;;2.03;1.00;;;;;;;;;;5085159;28;20063;-64
2023/09/25 07:33:47;;;;;;;3.38;1.50;;;;;;;;;;5080583;28;20060;-63
2023/09/25 07:36:18;;;;;;;2.33;0.98;;;;;;;;;;5090438;28;20131;-63
2023/09/25 07:38:45;;;;;;;1.85;1.02;;;;;;;;;;5088357;28;20048;-63
2023/09/25 07:41:14;;;;;;;3.38;1.27;;;;;;;;;;5086577;28;20084;-64
2023/09/25 07:43:41;;;;;;;2.35;1.05;;;;;;;;;;5082059;28;20048;-64
2023/09/25 07:46:08;;;;;;;4.65;1.50;;;;;;;;;;5075280;28;20055;-64
2023/09/25 07:48:38;;;;;;;3.92;1.40;;;;;;;;;;5086973;28;20536;-64
2023/09/25 07:51:07;;;;;;;3.08;1.20;;;;;;;;;;5085519;28;20066;-63
2023/09/25 07:53:34;;;;;;;2.92;1.40;;;;;;;;;;5085182;28;20044;-63
2023/09/25 07:56:02;;;;;;;2.90;1.02;;;;;;;;;;5088407;28;20129;-63
2023/09/25 07:58:32;;;;;;;4.35;1.30;;;;;;;;;;5088919;28;20456;-64
2023/09/25 08:01:04;;;;;;;3.15;1.23;;;;;;;;;;5090945;28;20052;-64
2023/09/25 08:03:32;;;;;;;2.13;1.10;;;;;;;;;;5082715;28;20075;-64
2023/09/25 08:06:04;;;;;;;2.30;0.90;;;;;;;;;;5089563;28;20161;-64
2023/09/25 08:08:32;;;;;;;3.30;1.27;;;;;;;;;;5081848;28;20064;-64
2023/09/25 08:10:59;;;;;;;3.10;1.55;;;;;;;;;;5085576;28;20044;-64
2023/09/25 08:13:26;;;;;;;2.28;1.20;;;;;;;;;;5089127;28;20044;-64
2023/09/25 08:15:55;;;;;;;2.85;1.00;;;;;;;;;;5089157;28;20478;-64
2023/09/25 08:18:23;;;;;;;3.10;1.25;;;;;;;;;;5087013;28;20589;-64
2023/09/25 08:20:50;;;;;;;2.10;1.13;;;;;;;;;;5083441;28;20146;-64
2023/09/25 08:23:18;;;;;;;5.82;1.38;;;;;;;;;;5081014;28;20256;-64
2023/09/25 08:25:45;;;;;;;1.92;0.90;;;;;;;;;;5074723;28;20057;-64
2023/09/25 08:28:13;;;;;;;2.45;1.30;;;;;;;;;;5085320;28;20048;-64
2023/09/25 08:30:41;;;;;;;3.22;1.40;;;;;;;;;;5080345;28;20323;-64
2023/09/25 08:33:09;;;;;;;3.40;1.30;;;;;;;;;;5088037;28;20085;-64
2023/09/25 08:35:37;;;;;;;2.55;1.15;;;;;;;;;;5082751;28;20063;-63
2023/09/25 08:38:04;;;;;;;2.40;1.10;;;;;;;;;;5070682;28;20040;-63
2023/09/25 08:40:32;;;;;;;3.42;1.60;;;;;;;;;;5078643;28;20054;-64
2023/09/25 08:43:00;;;;;;;6.20;1.15;;;;;;;;;;5083130;28;20055;-64
2023/09/25 08:45:27;;;;;;;3.90;1.40;;;;;;;;;;5086806;28;20040;-64
2023/09/25 08:47:55;;;;;;;2.72;1.48;;;;;;;;;;5088581;28;20577;-63
2023/09/25 08:50:24;;;;;;;2.28;1.02;;;;;;;;;;5086959;28;20052;-64
2023/09/25 08:52:52;;;;;;;5.53;1.40;;;;;;;;;;5089199;28;20044;-64
2023/09/25 08:55:19;;;;;;;2.67;1.05;;;;;;;;;;5089098;28;20051;-64
2023/09/25 08:57:47;;;;;;;3.95;1.20;;;;;;;;;;5088263;28;20056;-64
2023/09/25 09:00:15;;;;;;;1.92;1.10;;;;;;;;;;5084056;28;20055;-64
2023/09/25 09:02:43;;;;;;;7.20;1.30;;;;;;;;;;5087279;28;20048;-64
2023/09/25 09:05:12;;;;;;;2.58;1.20;;;;;;;;;;5066975;28;20055;-63
2023/09/25 09:07:56;;;;;;;5.28;1.52;;;;;;;;;;5090772;28;20043;-64
2023/09/25 09:10:23;;;;;;;6.78;1.50;;;;;;;;;;5089522;28;20044;-64
2023/09/25 09:12:53;;;;;;;3.05;1.48;;;;;;;;;;5077915;28;20511;-64
2023/09/25 09:15:26;;;;;;;3.72;1.20;;;;;;;;;;5099407;28;20491;-63
2023/09/25 09:17:53;;;;;;;3.45;1.42;;;;;;;;;;5068640;28;20114;-64
2023/09/25 09:20:20;;;;;;;2.40;1.58;;;;;;;;;;5098593;28;20047;-64
2023/09/25 09:22:52;;;;;;;2.65;1.25;;;;;;;;;;5092766;28;20101;-64
2023/09/25 09:25:22;;;;;;;2.40;1.50;;;;;;;;;;5097259;28;20039;-64
2023/09/25 09:27:49;;;;;;;4.43;1.60;;;;;;;;;;5085913;28;20137;-64
2023/09/25 09:30:23;;;;;;;3.80;1.20;;;;;;;;;;5079890;28;20052;-64
2023/09/25 09:32:50;;;;;;;2.03;1.17;;;;;;;;;;5082895;28;20048;-63
2023/09/25 09:35:22;;;;;;;4.35;1.50;;;;;;;;;;5086051;28;20525;-64
2023/09/25 09:37:52;;;;;;;4.30;1.45;;;;;;;;;;5087068;28;20052;-64
2023/09/25 09:40:20;;;;;;;4.45;1.50;;;;;;;;;;5083938;28;20048;-64
2023/09/25 09:42:49;;;;;;;3.42;1.33;;;;;;;;;;5083766;28;20082;-64
2023/09/25 09:45:16;;;;;;;3.50;1.25;;;;;;;;;;5085661;28;20091;-63
2023/09/25 09:47:45;;;;;;;3.67;1.50;;;;;;;;;;5083764;28;20048;-64
2023/09/25 09:50:13;;;;;;;2.65;1.30;;;;;;;;;;5087306;28;20044;-64
2023/09/25 09:52:42;;;;;;;4.32;1.30;;;;;;;;;;5086095;28;20059;-64
2023/09/25 09:55:12;;;;;;;2.55;1.40;;;;;;;;;;5081163;28;20544;-64
2023/09/25 09:57:40;;;;;;;2.50;1.23;;;;;;;;;;5081458;28;20515;-64
2023/09/25 10:00:07;;;;;;;2.53;1.20;;;;;;;;;;5093302;28;20087;-64
2023/09/25 10:02:36;;;;;;;3.30;1.52;;;;;;;;;;5086760;28;20044;-64
2023/09/25 10:05:04;;;;;;;2.50;1.35;;;;;;;;;;5081460;28;20087;-64
2023/09/25 10:07:31;;;;;;;3.17;1.55;;;;;;;;;;5088681;28;20523;-64
2023/09/25 10:09:59;;;;;;;6.22;1.40;;;;;;;;;;5080444;28;20044;-64
2023/09/25 10:12:40;;;;;;;3.53;1.48;;;;;;;;;;5086448;28;20048;-64
2023/09/25 10:15:09;;;;;;;3.75;1.10;;;;;;;;;;5080178;28;20043;-64
2023/09/25 10:17:41;;;;;;;3.17;1.73;;;;;;;;;;5095145;28;20045;-64
2023/09/25 10:20:28;;;;;;;4.53;1.60;;;;;;;;;;5082023;28;20052;-64
2023/09/25 10:22:55;;;;;;;3.17;1.50;;;;;;;;;;5083727;28;20088;-64
2023/09/25 10:25:22;;;;;;;3.80;1.27;;;;;;;;;;5080846;28;20051;-64
2023/09/25 10:27:51;;;;;;;5.45;2.25;;;;;;;;;;5090732;28;20059;-64
2023/09/25 10:30:18;;;;;;;6.93;1.60;;;;;;;;;;5094690;28;20392;-64
2023/09/25 10:32:50;;;;;;;3.50;1.50;;;;;;;;;;5086922;28;20079;-64
2023/09/25 10:35:36;;;;;;;4.70;1.80;;;;;;;;;;5078178;28;20051;-64
2023/09/25 10:38:10;;;;;;;2.53;1.42;;;;;;;;;;5074584;28;20066;-64
2023/09/25 10:40:38;;;;;;;3.85;1.67;;;;;;;;;;5080117;28;20457;-64
2023/09/25 10:43:07;;;;;;;2.92;1.48;;;;;;;;;;5084689;28;20495;-64
2023/09/25 10:45:35;;;;;;;4.30;1.95;;;;;;;;;;5088939;28;20400;-64
2023/09/25 10:48:03;;;;;;;3.60;1.70;;;;;;;;;;5087138;28;20474;-64
2023/09/25 10:50:30;;;;;;;5.55;1.55;;;;;;;;;;5083062;28;20051;-64
2023/09/25 10:52:58;;;;;;;4.28;1.48;;;;;;;;;;5085887;28;20075;-64
2023/09/25 10:55:25;;;;;;;3.58;1.63;;;;;;;;;;5083674;28;20078;-64
2023/09/25 10:57:52;;;;;;;2.92;1.60;;;;;;;;;;5088870;28;20070;-64
2023/09/25 11:00:21;;;;;;;3.42;1.67;;;;;;;;;;5092294;28;20048;-64
2023/09/25 11:02:48;;;;;;;9.63;1.60;;;;;;;;;;5104467;28;20048;-64
2023/09/25 11:05:16;;;;;;;3.88;1.85;;;;;;;;;;5103925;28;20059;-64
2023/09/25 11:07:43;;;;;;;7.88;1.67;;;;;;;;;;5083012;28;20087;-64
2023/09/25 11:10:13;;;;;;;5.13;1.70;;;;;;;;;;5087583;28;20097;-64
2023/09/25 11:12:40;;;;;;;5.13;2.30;;;;;;;;;;5085550;28;20920;-63
2023/09/25 11:15:11;;;;;;;8.23;1.67;;;;;;;;;;5087067;28;20077;-63
2023/09/25 11:17:40;;;;;;;6.07;1.88;;;;;;;;;;5092386;28;20071;-63
2023/09/25 11:20:11;;;;;;;4.68;1.45;;;;;;;;;;5087318;28;20048;-64
2023/09/25 11:22:39;;;;;;;4.28;1.63;;;;;;;;;;5088766;28;20055;-64
2023/09/25 11:25:10;;;;;;;3.28;1.50;;;;;;;;;;5087120;28;20048;-64
2023/09/25 11:27:38;;;;;;;4.07;1.70;;;;;;;;;;5083693;28;20052;-64
2023/09/25 11:30:06;;;;;;;5.22;1.50;;;;;;;;;;5087729;28;20044;-64
2023/09/25 11:32:33;;;;;;;6.47;1.80;;;;;;;;;;5090855;28;20051;-64
2023/09/25 11:35:03;;;;;;;3.97;1.63;;;;;;;;;;5084716;28;20066;-64
2023/09/25 11:37:30;;;;;;;3.20;1.83;;;;;;;;;;5076708;28;20045;-64
2023/09/25 11:39:57;;;;;;;5.18;1.90;;;;;;;;;;5090298;28;20050;-64
2023/09/25 11:42:24;;;;;;;4.90;1.70;;;;;;;;;;5087581;28;20055;-64
2023/09/25 11:44:51;;;;;;;4.60;1.92;;;;;;;;;;5085375;28;20066;-64
2023/09/25 11:47:19;;;;;;;3.70;1.45;;;;;;;;;;5087562;28;20553;-64
2023/09/25 11:49:46;;;;;;;5.68;2.00;;;;;;;;;;5086330;28;20495;-64
2023/09/25 11:52:15;;;;;;;3.45;1.90;;;;;;;;;;5088943;28;20055;-64
2023/09/25 11:54:42;;;;;;;3.88;1.73;;;;;;;;;;5089532;28;20061;-64
2023/09/25 11:57:09;;;;;;;4.28;2.00;;;;;;;;;;5085224;28;20071;-64
2023/09/25 11:59:38;;;;;;;4.00;2.03;;;;;;;;;;5066347;28;20051;-64
2023/09/25 12:02:06;;;;;;;4.50;1.90;;;;;;;;;;5089632;28;20044;-64
2023/09/25 12:04:33;;;;;;;3.25;1.75;;;;;;;;;;5088032;28;20054;-64
2023/09/25 12:07:00;;;;;;;4.20;1.80;;;;;;;;;;5080161;28;20066;-64
2023/09/25 12:09:29;;;;;;;5.10;1.85;;;;;;;;;;5086265;28;20043;-64
2023/09/25 12:11:56;;;;;;;3.90;1.60;;;;;;;;;;5087200;28;20044;-64
2023/09/25 12:14:23;;;;;;;6.15;2.08;;;;;;;;;;5088778;28;20052;-64
2023/09/25 12:16:50;;;;;;;4.30;2.00;;;;;;;;;;5091076;28;20054;-64
2023/09/25 12:19:18;;;;;;;5.28;1.70;;;;;;;;;;5084857;28;20051;-64
2023/09/25 12:21:46;;;;;;;4.13;1.70;;;;;;;;;;5070656;28;20056;-64
2023/09/25 12:24:13;;;;;;;5.95;1.95;;;;;;;;;;5076145;28;20053;-64
2023/09/25 12:26:41;;;;;;;4.93;1.70;;;;;;;;;;5089955;28;20047;-64
2023/09/25 12:29:08;;;;;;;3.40;1.77;;;;;;;;;;5078023;28;20482;-64
2023/09/25 12:31:36;;;;;;;4.32;2.05;;;;;;;;;;5093014;28;20054;-64
2023/09/25 12:34:03;;;;;;;4.38;1.67;;;;;;;;;;5087224;28;20491;-63
2023/09/25 12:36:30;;;;;;;4.00;1.95;;;;;;;;;;5094094;28;20116;-63
2023/09/25 12:38:58;;;;;;;3.67;1.70;;;;;;;;;;5077728;28;20509;-63
2023/09/25 12:41:25;;;;;;;3.20;1.83;;;;;;;;;;5087982;28;20495;-64
2023/09/25 12:43:53;;;;;;;4.25;1.73;;;;;;;;;;5086979;28;20048;-64
2023/09/25 12:46:20;;;;;;;6.05;1.80;;;;;;;;;;5080888;28;20049;-64
2023/09/25 12:48:48;;;;;;;3.55;2.10;;;;;;;;;;5082582;28;20430;-64
2023/09/25 12:51:15;;;;;;;3.30;1.70;;;;;;;;;;5085609;28;20089;-64
2023/09/25 12:53:42;;;;;;;4.03;1.73;;;;;;;;;;5079530;28;20064;-64
2023/09/25 12:56:09;;;;;;;3.75;2.05;;;;;;;;;;5093978;28;20044;-64
2023/09/25 12:58:37;;;;;;;3.42;2.00;;;;;;;;;;5090845;28;20051;-64
2023/09/25 13:01:05;;;;;;;4.90;1.98;;;;;;;;;;5063955;28;20053;-64
2023/09/25 13:03:32;;;;;;;5.68;1.95;;;;;;;;;;5080453;28;20048;-64
2023/09/25 13:06:00;;;;;;;4.30;1.83;;;;;;;;;;5081887;28;20048;-64
2023/09/25 13:08:27;;;;;;;2.70;2.00;;;;;;;;;;5063740;28;20060;-64
2023/09/25 13:10:54;;;;;;;5.97;2.25;;;;;;;;;;5087495;28;20055;-64
2023/09/25 13:13:22;;;;;;;4.95;2.08;;;;;;;;;;5062221;28;20094;-64
2023/09/25 13:15:49;;;;;;;5.05;2.00;;;;;;;;;;5080784;28;20526;-64
2023/09/25 13:18:17;;;;;;;3.90;1.95;;;;;;;;;;5078141;28;20084;-64
2023/09/25 13:20:45;;;;;;;4.28;2.08;;;;;;;;;;5080630;28;20044;-64
2023/09/25 13:23:12;;;;;;;3.90;2.13;;;;;;;;;;5081404;28;20488;-63
2023/09/25 13:25:39;;;;;;;4.07;2.00;;;;;;;;;;5061396;28;20075;-64
2023/09/25 13:28:07;;;;;;;6.82;1.83;;;;;;;;;;5086084;28;20044;-64
2023/09/25 13:30:34;;;;;;;4.28;2.00;;;;;;;;;;5083167;28;20048;-64
2023/09/25 13:33:01;;;;;;;3.25;1.90;;;;;;;;;;5080637;28;20053;-64
2023/09/25 13:35:30;;;;;;;5.68;2.10;;;;;;;;;;5078762;28;20060;-64
2023/09/25 13:37:57;;;;;;;6.32;2.25;;;;;;;;;;5079623;28;20055;-64
2023/09/25 13:40:26;;;;;;;4.53;2.00;;;;;;;;;;5078595;28;20048;-64
2023/09/25 13:42:54;;;;;;;4.82;2.00;;;;;;;;;;5087494;28;20461;-64
2023/09/25 13:45:21;;;;;;;4.22;1.90;;;;;;;;;;5068381;28;20119;-64
2023/09/25 13:47:49;;;;;;;4.80;2.20;;;;;;;;;;5083037;28;20060;-64
2023/09/25 13:50:16;;;;;;;3.97;2.20;;;;;;;;;;5078003;28;20052;-64
2023/09/25 13:52:46;;;;;;;7.82;2.25;;;;;;;;;;5083270;28;20055;-63
2023/09/25 13:55:15;;;;;;;4.60;1.95;;;;;;;;;;5087181;28;20131;-64
2023/09/25 13:57:42;;;;;;;7.05;2.10;;;;;;;;;;5088182;28;20040;-63
2023/09/25 14:00:11;;;;;;;5.35;2.38;;;;;;;;;;5088238;28;20044;-64
2023/09/25 14:02:38;;;;;;;4.82;2.22;;;;;;;;;;5079521;28;20053;-63
2023/09/25 14:05:06;;;;;;;6.10;2.13;;;;;;;;;;5066504;28;20048;-64
2023/09/25 14:07:34;;;;;;;7.25;2.25;;;;;;;;;;5084181;28;20127;-64
2023/09/25 14:10:02;;;;;;;3.75;2.30;;;;;;;;;;5085247;28;20036;-64
2023/09/25 14:12:30;;;;;;;5.35;2.10;;;;;;;;;;5093575;28;20048;-64
2023/09/25 14:14:57;;;;;;;6.05;2.15;;;;;;;;;;5064517;28;20055;-63
2023/09/25 14:17:24;;;;;;;6.93;2.42;;;;;;;;;;5088017;28;20056;-64
2023/09/25 14:19:51;;;;;;;4.07;2.05;;;;;;;;;;5084601;28;20055;-64
2023/09/25 14:22:19;;;;;;;5.03;1.80;;;;;;;;;;5088803;28;20055;-64
2023/09/25 14:24:47;;;;;;;5.75;2.47;;;;;;;;;;5092369;28;20051;-64
2023/09/25 14:27:17;;;;;;;3.92;1.95;;;;;;;;;;5088827;28;20047;-64
2023/09/25 14:29:44;;;;;;;4.70;1.88;;;;;;;;;;5093064;28;20110;-63
2023/09/25 14:32:11;;;;;;;4.28;2.15;;;;;;;;;;5083325;28;20761;-64
2023/09/25 14:34:38;;;;;;;5.45;1.98;;;;;;;;;;5083055;28;20055;-63
2023/09/25 14:37:06;;;;;;;5.03;2.20;;;;;;;;;;5101167;28;20063;-64
2023/09/25 14:39:33;;;;;;;6.50;2.10;;;;;;;;;;5082623;28;20048;-64
2023/09/25 14:42:00;;;;;;;5.65;2.10;;;;;;;;;;5097979;28;20051;-63
2023/09/25 14:44:29;;;;;;;5.38;1.85;;;;;;;;;;5086702;28;20048;-64
2023/09/25 14:46:56;;;;;;;6.50;2.20;;;;;;;;;;5084618;28;20051;-64